sensor_id;sensor_type;location;lat;lon;timestamp;P1;durP1;ratioP1;P2;durP2;ratioP2
65202;SDS011;51788;45.124;38.966;2022-08-19T00:01:46;11.77;;;9.15;;
65202;SDS011;51788;45.124;38.966;2022-08-19T00:04:14;13.07;;;9.40;;
65202;SDS011;51788;45.124;38.966;2022-08-19T00:06:42;14.00;;;9.07;;
65202;SDS011;51788;45.124;38.966;2022-08-19T00:09:11;14.13;;;8.60;;
65202;SDS011;51788;45.124;38.966;2022-08-19T00:11:38;14.20;;;9.13;;
65202;SDS011;51788;45.124;38.966;2022-08-19T00:14:05;13.13;;;9.77;;
65202;SDS011;51788;45.124;38.966;2022-08-19T00:16:35;13.27;;;9.45;;
65202;SDS011;51788;45.124;38.966;2022-08-19T00:19:03;10.82;;;8.85;;
65202;SDS011;51788;45.124;38.966;2022-08-19T00:21:29;13.52;;;10.15;;
65202;SDS011;51788;45.124;38.966;2022-08-19T00:23:55;16.25;;;9.98;;
65202;SDS011;51788;45.124;38.966;2022-08-19T00:26:26;13.48;;;9.60;;
65202;SDS011;51788;45.124;38.966;2022-08-19T00:28:53;17.02;;;9.10;;
65202;SDS011;51788;45.124;38.966;2022-08-19T00:31:20;16.20;;;9.55;;
65202;SDS011;51788;45.124;38.966;2022-08-19T00:33:46;12.05;;;9.93;;
65202;SDS011;51788;45.124;38.966;2022-08-19T00:36:14;11.88;;;9.23;;
65202;SDS011;51788;45.124;38.966;2022-08-19T00:38:40;16.63;;;10.70;;
65202;SDS011;51788;45.124;38.966;2022-08-19T00:41:10;10.93;;;9.63;;
65202;SDS011;51788;45.124;38.966;2022-08-19T00:43:39;13.60;;;9.18;;
65202;SDS011;51788;45.124;38.966;2022-08-19T00:46:06;11.18;;;8.85;;
65202;SDS011;51788;45.124;38.966;2022-08-19T00:48:32;16.25;;;8.95;;
65202;SDS011;51788;45.124;38.966;2022-08-19T00:50:59;17.23;;;9.45;;
65202;SDS011;51788;45.124;38.966;2022-08-19T00:53:26;16.17;;;9.55;;
65202;SDS011;51788;45.124;38.966;2022-08-19T00:55:55;13.82;;;9.27;;
65202;SDS011;51788;45.124;38.966;2022-08-19T00:58:24;14.40;;;9.73;;
65202;SDS011;51788;45.124;38.966;2022-08-19T01:00:53;12.20;;;9.10;;
65202;SDS011;51788;45.124;38.966;2022-08-19T01:03:20;11.40;;;9.20;;
65202;SDS011;51788;45.124;38.966;2022-08-19T01:05:47;15.57;;;9.23;;
65202;SDS011;51788;45.124;38.966;2022-08-19T01:08:16;17.55;;;9.48;;
65202;SDS011;51788;45.124;38.966;2022-08-19T01:10:47;18.15;;;10.18;;
65202;SDS011;51788;45.124;38.966;2022-08-19T01:13:21;15.50;;;10.10;;
65202;SDS011;51788;45.124;38.966;2022-08-19T01:15:51;15.63;;;11.82;;
65202;SDS011;51788;45.124;38.966;2022-08-19T01:18:20;19.20;;;13.65;;
65202;SDS011;51788;45.124;38.966;2022-08-19T01:20:47;17.75;;;10.40;;
65202;SDS011;51788;45.124;38.966;2022-08-19T01:23:13;18.73;;;12.65;;
65202;SDS011;51788;45.124;38.966;2022-08-19T01:28:14;20.45;;;10.80;;
65202;SDS011;51788;45.124;38.966;2022-08-19T01:30:41;18.67;;;7.95;;
65202;SDS011;51788;45.124;38.966;2022-08-19T01:33:09;10.07;;;7.80;;
65202;SDS011;51788;45.124;38.966;2022-08-19T01:35:35;8.80;;;7.53;;
65202;SDS011;51788;45.124;38.966;2022-08-19T01:38:03;18.98;;;8.10;;
65202;SDS011;51788;45.124;38.966;2022-08-19T01:40:33;14.77;;;7.93;;
65202;SDS011;51788;45.124;38.966;2022-08-19T01:43:02;8.23;;;7.35;;
65202;SDS011;51788;45.124;38.966;2022-08-19T01:45:30;11.35;;;7.80;;
65202;SDS011;51788;45.124;38.966;2022-08-19T01:47:59;15.48;;;8.63;;
65202;SDS011;51788;45.124;38.966;2022-08-19T01:50:25;15.50;;;7.90;;
65202;SDS011;51788;45.124;38.966;2022-08-19T01:52:51;11.32;;;8.18;;
65202;SDS011;51788;45.124;38.966;2022-08-19T01:55:19;12.50;;;8.20;;
65202;SDS011;51788;45.124;38.966;2022-08-19T01:57:48;19.17;;;8.85;;
65202;SDS011;51788;45.124;38.966;2022-08-19T02:00:18;12.52;;;8.38;;
65202;SDS011;51788;45.124;38.966;2022-08-19T02:02:45;15.77;;;8.98;;
65202;SDS011;51788;45.124;38.966;2022-08-19T02:05:11;11.13;;;8.27;;
65202;SDS011;51788;45.124;38.966;2022-08-19T02:07:38;11.25;;;7.85;;
65202;SDS011;51788;45.124;38.966;2022-08-19T02:10:06;11.07;;;7.65;;
65202;SDS011;51788;45.124;38.966;2022-08-19T02:12:34;9.73;;;7.50;;
65202;SDS011;51788;45.124;38.966;2022-08-19T02:15:00;12.20;;;7.30;;
65202;SDS011;51788;45.124;38.966;2022-08-19T02:17:28;15.13;;;7.75;;
65202;SDS011;51788;45.124;38.966;2022-08-19T02:19:55;8.60;;;7.80;;
65202;SDS011;51788;45.124;38.966;2022-08-19T02:22:22;11.98;;;7.75;;
65202;SDS011;51788;45.124;38.966;2022-08-19T02:24:51;12.20;;;7.93;;
65202;SDS011;51788;45.124;38.966;2022-08-19T02:27:18;17.88;;;8.05;;
65202;SDS011;51788;45.124;38.966;2022-08-19T02:29:45;17.13;;;7.72;;
65202;SDS011;51788;45.124;38.966;2022-08-19T02:32:13;10.35;;;8.80;;
65202;SDS011;51788;45.124;38.966;2022-08-19T02:34:39;19.95;;;10.27;;
65202;SDS011;51788;45.124;38.966;2022-08-19T02:37:05;9.80;;;8.20;;
65202;SDS011;51788;45.124;38.966;2022-08-19T02:39:51;18.13;;;8.70;;
65202;SDS011;51788;45.124;38.966;2022-08-19T02:42:17;23.15;;;8.48;;
65202;SDS011;51788;45.124;38.966;2022-08-19T02:44:43;11.75;;;8.15;;
65202;SDS011;51788;45.124;38.966;2022-08-19T02:47:09;8.70;;;7.90;;
65202;SDS011;51788;45.124;38.966;2022-08-19T02:49:35;14.20;;;7.85;;
65202;SDS011;51788;45.124;38.966;2022-08-19T02:52:02;13.00;;;8.00;;
65202;SDS011;51788;45.124;38.966;2022-08-19T02:54:28;14.35;;;7.50;;
65202;SDS011;51788;45.124;38.966;2022-08-19T02:56:54;11.18;;;7.57;;
65202;SDS011;51788;45.124;38.966;2022-08-19T02:59:20;16.65;;;8.13;;
65202;SDS011;51788;45.124;38.966;2022-08-19T03:01:46;8.07;;;7.18;;
65202;SDS011;51788;45.124;38.966;2022-08-19T03:04:13;10.25;;;7.78;;
65202;SDS011;51788;45.124;38.966;2022-08-19T03:06:41;12.93;;;7.45;;
65202;SDS011;51788;45.124;38.966;2022-08-19T03:09:09;10.38;;;7.80;;
65202;SDS011;51788;45.124;38.966;2022-08-19T03:11:36;13.55;;;7.93;;
65202;SDS011;51788;45.124;38.966;2022-08-19T03:14:03;9.60;;;8.27;;
65202;SDS011;51788;45.124;38.966;2022-08-19T03:16:32;10.35;;;8.13;;
65202;SDS011;51788;45.124;38.966;2022-08-19T03:19:00;11.85;;;7.50;;
65202;SDS011;51788;45.124;38.966;2022-08-19T03:21:28;8.95;;;8.05;;
65202;SDS011;51788;45.124;38.966;2022-08-19T03:23:57;13.93;;;7.82;;
65202;SDS011;51788;45.124;38.966;2022-08-19T03:26:25;19.63;;;8.60;;
65202;SDS011;51788;45.124;38.966;2022-08-19T03:28:51;9.93;;;7.65;;
65202;SDS011;51788;45.124;38.966;2022-08-19T03:31:20;17.77;;;8.80;;
65202;SDS011;51788;45.124;38.966;2022-08-19T03:33:50;12.88;;;7.85;;
65202;SDS011;51788;45.124;38.966;2022-08-19T03:36:18;26.63;;;7.95;;
65202;SDS011;51788;45.124;38.966;2022-08-19T03:38:49;24.95;;;7.88;;
65202;SDS011;51788;45.124;38.966;2022-08-19T03:41:23;8.77;;;7.10;;
65202;SDS011;51788;45.124;38.966;2022-08-19T03:43:51;11.57;;;6.50;;
65202;SDS011;51788;45.124;38.966;2022-08-19T03:46:20;6.70;;;6.03;;
65202;SDS011;51788;45.124;38.966;2022-08-19T03:48:49;12.18;;;6.57;;
65202;SDS011;51788;45.124;38.966;2022-08-19T03:53:47;18.92;;;6.60;;
65202;SDS011;51788;45.124;38.966;2022-08-19T03:56:14;10.18;;;5.68;;
65202;SDS011;51788;45.124;38.966;2022-08-19T03:58:40;11.27;;;6.32;;
65202;SDS011;51788;45.124;38.966;2022-08-19T04:01:10;6.63;;;5.25;;
65202;SDS011;51788;45.124;38.966;2022-08-19T04:03:38;11.10;;;6.13;;
65202;SDS011;51788;45.124;38.966;2022-08-19T04:06:26;14.15;;;5.70;;
65202;SDS011;51788;45.124;38.966;2022-08-19T04:08:53;6.10;;;5.53;;
65202;SDS011;51788;45.124;38.966;2022-08-19T04:11:24;10.57;;;5.53;;
65202;SDS011;51788;45.124;38.966;2022-08-19T04:13:52;5.90;;;4.85;;
65202;SDS011;51788;45.124;38.966;2022-08-19T04:16:20;10.75;;;5.00;;
65202;SDS011;51788;45.124;38.966;2022-08-19T04:18:48;6.70;;;4.60;;
65202;SDS011;51788;45.124;38.966;2022-08-19T04:21:16;7.85;;;4.72;;
65202;SDS011;51788;45.124;38.966;2022-08-19T04:23:44;15.02;;;4.72;;
65202;SDS011;51788;45.124;38.966;2022-08-19T04:26:14;4.80;;;4.40;;
65202;SDS011;51788;45.124;38.966;2022-08-19T04:28:42;6.53;;;4.20;;
65202;SDS011;51788;45.124;38.966;2022-08-19T04:31:13;19.48;;;5.05;;
65202;SDS011;51788;45.124;38.966;2022-08-19T04:33:56;10.05;;;4.57;;
65202;SDS011;51788;45.124;38.966;2022-08-19T04:36:25;9.13;;;5.07;;
65202;SDS011;51788;45.124;38.966;2022-08-19T04:38:54;6.15;;;4.25;;
65202;SDS011;51788;45.124;38.966;2022-08-19T04:41:21;10.95;;;4.35;;
65202;SDS011;51788;45.124;38.966;2022-08-19T04:44:06;10.45;;;4.55;;
65202;SDS011;51788;45.124;38.966;2022-08-19T04:46:32;9.75;;;4.30;;
65202;SDS011;51788;45.124;38.966;2022-08-19T04:48:59;8.45;;;4.15;;
65202;SDS011;51788;45.124;38.966;2022-08-19T04:51:26;6.55;;;4.30;;
65202;SDS011;51788;45.124;38.966;2022-08-19T04:53:53;4.90;;;4.32;;
65202;SDS011;51788;45.124;38.966;2022-08-19T04:56:19;5.00;;;4.53;;
65202;SDS011;51788;45.124;38.966;2022-08-19T04:58:48;6.32;;;4.10;;
65202;SDS011;51788;45.124;38.966;2022-08-19T05:01:17;4.60;;;4.20;;
65202;SDS011;51788;45.124;38.966;2022-08-19T05:03:48;7.07;;;4.20;;
65202;SDS011;51788;45.124;38.966;2022-08-19T05:06:15;9.68;;;3.70;;
65202;SDS011;51788;45.124;38.966;2022-08-19T05:08:43;16.90;;;4.13;;
65202;SDS011;51788;45.124;38.966;2022-08-19T05:11:11;23.23;;;4.25;;
65202;SDS011;51788;45.124;38.966;2022-08-19T05:13:42;21.38;;;4.65;;
65202;SDS011;51788;45.124;38.966;2022-08-19T05:16:10;9.85;;;3.88;;
65202;SDS011;51788;45.124;38.966;2022-08-19T05:18:38;10.48;;;3.92;;
65202;SDS011;51788;45.124;38.966;2022-08-19T05:21:23;8.65;;;3.80;;
65202;SDS011;51788;45.124;38.966;2022-08-19T05:24:09;7.03;;;4.38;;
65202;SDS011;51788;45.124;38.966;2022-08-19T05:26:39;14.27;;;4.47;;
65202;SDS011;51788;45.124;38.966;2022-08-19T05:29:06;10.25;;;3.70;;
65202;SDS011;51788;45.124;38.966;2022-08-19T05:31:34;9.30;;;4.28;;
65202;SDS011;51788;45.124;38.966;2022-08-19T05:34:01;6.63;;;4.25;;
65202;SDS011;51788;45.124;38.966;2022-08-19T05:36:32;5.88;;;3.92;;
65202;SDS011;51788;45.124;38.966;2022-08-19T05:39:07;9.40;;;4.05;;
65202;SDS011;51788;45.124;38.966;2022-08-19T05:41:35;9.43;;;4.30;;
65202;SDS011;51788;45.124;38.966;2022-08-19T05:44:02;8.50;;;3.63;;
65202;SDS011;51788;45.124;38.966;2022-08-19T05:46:32;26.17;;;3.83;;
65202;SDS011;51788;45.124;38.966;2022-08-19T05:48:58;10.27;;;4.10;;
65202;SDS011;51788;45.124;38.966;2022-08-19T05:51:24;13.20;;;4.05;;
65202;SDS011;51788;45.124;38.966;2022-08-19T05:53:50;8.65;;;3.55;;
65202;SDS011;51788;45.124;38.966;2022-08-19T05:56:18;11.88;;;3.58;;
65202;SDS011;51788;45.124;38.966;2022-08-19T05:58:44;9.35;;;4.15;;
65202;SDS011;51788;45.124;38.966;2022-08-19T06:01:12;10.48;;;4.05;;
65202;SDS011;51788;45.124;38.966;2022-08-19T06:03:41;10.50;;;3.20;;
65202;SDS011;51788;45.124;38.966;2022-08-19T06:06:07;11.32;;;3.65;;
65202;SDS011;51788;45.124;38.966;2022-08-19T06:08:39;12.07;;;3.60;;
65202;SDS011;51788;45.124;38.966;2022-08-19T06:11:12;6.90;;;3.85;;
65202;SDS011;51788;45.124;38.966;2022-08-19T06:13:40;12.77;;;3.75;;
65202;SDS011;51788;45.124;38.966;2022-08-19T06:16:06;8.77;;;3.63;;
65202;SDS011;51788;45.124;38.966;2022-08-19T06:18:32;14.98;;;3.70;;
65202;SDS011;51788;45.124;38.966;2022-08-19T06:20:58;5.47;;;3.55;;
65202;SDS011;51788;45.124;38.966;2022-08-19T06:23:25;5.75;;;3.30;;
65202;SDS011;51788;45.124;38.966;2022-08-19T06:25:51;14.13;;;3.90;;
65202;SDS011;51788;45.124;38.966;2022-08-19T06:28:17;6.22;;;3.55;;
65202;SDS011;51788;45.124;38.966;2022-08-19T06:30:43;8.98;;;3.42;;
65202;SDS011;51788;45.124;38.966;2022-08-19T06:33:09;9.23;;;3.80;;
65202;SDS011;51788;45.124;38.966;2022-08-19T06:35:39;5.25;;;3.67;;
65202;SDS011;51788;45.124;38.966;2022-08-19T06:38:06;14.45;;;4.68;;
65202;SDS011;51788;45.124;38.966;2022-08-19T06:40:32;5.90;;;3.58;;
65202;SDS011;51788;45.124;38.966;2022-08-19T06:42:58;14.40;;;3.45;;
65202;SDS011;51788;45.124;38.966;2022-08-19T06:45:25;21.58;;;3.90;;
65202;SDS011;51788;45.124;38.966;2022-08-19T06:47:52;4.63;;;3.55;;
65202;SDS011;51788;45.124;38.966;2022-08-19T06:50:24;10.35;;;5.53;;
65202;SDS011;51788;45.124;38.966;2022-08-19T06:52:50;8.60;;;3.45;;
65202;SDS011;51788;45.124;38.966;2022-08-19T06:55:16;12.00;;;4.13;;
65202;SDS011;51788;45.124;38.966;2022-08-19T06:57:42;10.43;;;3.72;;
65202;SDS011;51788;45.124;38.966;2022-08-19T07:00:11;4.75;;;3.80;;
65202;SDS011;51788;45.124;38.966;2022-08-19T07:02:40;7.38;;;3.53;;
65202;SDS011;51788;45.124;38.966;2022-08-19T07:05:07;17.95;;;4.15;;
65202;SDS011;51788;45.124;38.966;2022-08-19T07:07:33;8.95;;;3.60;;
65202;SDS011;51788;45.124;38.966;2022-08-19T07:10:00;5.35;;;3.90;;
65202;SDS011;51788;45.124;38.966;2022-08-19T07:12:27;10.65;;;3.50;;
65202;SDS011;51788;45.124;38.966;2022-08-19T07:17:23;4.53;;;3.38;;
65202;SDS011;51788;45.124;38.966;2022-08-19T07:19:50;7.47;;;3.70;;
65202;SDS011;51788;45.124;38.966;2022-08-19T07:22:16;4.10;;;3.10;;
65202;SDS011;51788;45.124;38.966;2022-08-19T07:24:43;7.45;;;4.00;;
65202;SDS011;51788;45.124;38.966;2022-08-19T07:27:09;11.27;;;3.90;;
65202;SDS011;51788;45.124;38.966;2022-08-19T07:29:35;14.35;;;4.57;;
65202;SDS011;51788;45.124;38.966;2022-08-19T07:32:02;7.40;;;4.22;;
65202;SDS011;51788;45.124;38.966;2022-08-19T07:34:30;13.85;;;4.10;;
65202;SDS011;51788;45.124;38.966;2022-08-19T07:36:59;10.63;;;4.28;;
65202;SDS011;51788;45.124;38.966;2022-08-19T07:39:27;8.25;;;3.72;;
65202;SDS011;51788;45.124;38.966;2022-08-19T07:41:55;6.20;;;3.70;;
65202;SDS011;51788;45.124;38.966;2022-08-19T07:44:23;23.75;;;5.03;;
65202;SDS011;51788;45.124;38.966;2022-08-19T07:46:50;22.33;;;4.90;;
65202;SDS011;51788;45.124;38.966;2022-08-19T07:49:18;7.25;;;3.90;;
65202;SDS011;51788;45.124;38.966;2022-08-19T07:51:46;9.07;;;4.22;;
65202;SDS011;51788;45.124;38.966;2022-08-19T07:54:34;6.65;;;3.92;;
65202;SDS011;51788;45.124;38.966;2022-08-19T07:57:02;4.72;;;3.22;;
65202;SDS011;51788;45.124;38.966;2022-08-19T07:59:29;14.02;;;4.13;;
65202;SDS011;51788;45.124;38.966;2022-08-19T08:01:56;7.70;;;3.50;;
65202;SDS011;51788;45.124;38.966;2022-08-19T08:04:25;11.20;;;4.00;;
65202;SDS011;51788;45.124;38.966;2022-08-19T08:07:11;7.82;;;5.85;;
65202;SDS011;51788;45.124;38.966;2022-08-19T08:09:56;8.93;;;3.80;;
65202;SDS011;51788;45.124;38.966;2022-08-19T08:12:24;8.77;;;3.47;;
65202;SDS011;51788;45.124;38.966;2022-08-19T08:14:57;18.07;;;3.50;;
65202;SDS011;51788;45.124;38.966;2022-08-19T08:17:29;19.27;;;4.40;;
65202;SDS011;51788;45.124;38.966;2022-08-19T08:19:56;11.18;;;6.43;;
65202;SDS011;51788;45.124;38.966;2022-08-19T08:22:22;21.60;;;4.32;;
65202;SDS011;51788;45.124;38.966;2022-08-19T08:25:15;11.50;;;4.45;;
65202;SDS011;51788;45.124;38.966;2022-08-19T08:27:43;10.43;;;4.00;;
65202;SDS011;51788;45.124;38.966;2022-08-19T08:30:15;16.90;;;4.22;;
65202;SDS011;51788;45.124;38.966;2022-08-19T08:32:43;5.32;;;3.85;;
65202;SDS011;51788;45.124;38.966;2022-08-19T08:35:11;6.80;;;4.20;;
65202;SDS011;51788;45.124;38.966;2022-08-19T08:37:42;7.93;;;3.88;;
65202;SDS011;51788;45.124;38.966;2022-08-19T08:40:12;14.48;;;4.25;;
65202;SDS011;51788;45.124;38.966;2022-08-19T08:43:06;13.90;;;5.68;;
65202;SDS011;51788;45.124;38.966;2022-08-19T08:45:48;21.92;;;4.22;;
65202;SDS011;51788;45.124;38.966;2022-08-19T08:48:22;8.48;;;3.90;;
65202;SDS011;51788;45.124;38.966;2022-08-19T08:51:03;4.37;;;3.70;;
65202;SDS011;51788;45.124;38.966;2022-08-19T08:53:33;10.70;;;4.53;;
65202;SDS011;51788;45.124;38.966;2022-08-19T08:56:01;19.90;;;5.10;;
65202;SDS011;51788;45.124;38.966;2022-08-19T08:58:31;8.98;;;3.78;;
65202;SDS011;51788;45.124;38.966;2022-08-19T09:01:09;10.95;;;4.57;;
65202;SDS011;51788;45.124;38.966;2022-08-19T09:03:37;4.97;;;4.40;;
65202;SDS011;51788;45.124;38.966;2022-08-19T09:06:13;16.10;;;3.95;;
65202;SDS011;51788;45.124;38.966;2022-08-19T09:11:28;7.32;;;3.88;;
65202;SDS011;51788;45.124;38.966;2022-08-19T09:14:08;10.15;;;4.13;;
65202;SDS011;51788;45.124;38.966;2022-08-19T09:16:57;11.35;;;4.30;;
65202;SDS011;51788;45.124;38.966;2022-08-19T09:19:23;5.35;;;3.72;;
65202;SDS011;51788;45.124;38.966;2022-08-19T09:21:49;13.60;;;4.20;;
65202;SDS011;51788;45.124;38.966;2022-08-19T09:24:15;9.63;;;4.00;;
65202;SDS011;51788;45.124;38.966;2022-08-19T09:26:42;16.50;;;4.25;;
65202;SDS011;51788;45.124;38.966;2022-08-19T09:29:09;7.57;;;3.95;;
65202;SDS011;51788;45.124;38.966;2022-08-19T09:31:35;15.70;;;4.32;;
65202;SDS011;51788;45.124;38.966;2022-08-19T09:34:02;7.90;;;3.65;;
65202;SDS011;51788;45.124;38.966;2022-08-19T09:36:30;11.02;;;3.38;;
65202;SDS011;51788;45.124;38.966;2022-08-19T09:39:02;14.70;;;3.65;;
65202;SDS011;51788;45.124;38.966;2022-08-19T09:41:29;6.95;;;3.92;;
65202;SDS011;51788;45.124;38.966;2022-08-19T09:43:56;20.60;;;5.10;;
65202;SDS011;51788;45.124;38.966;2022-08-19T09:46:24;10.88;;;4.05;;
65202;SDS011;51788;45.124;38.966;2022-08-19T09:48:54;17.95;;;3.10;;
65202;SDS011;51788;45.124;38.966;2022-08-19T09:51:24;14.68;;;3.85;;
65202;SDS011;51788;45.124;38.966;2022-08-19T09:53:52;9.77;;;4.18;;
65202;SDS011;51788;45.124;38.966;2022-08-19T09:56:22;12.80;;;4.20;;
65202;SDS011;51788;45.124;38.966;2022-08-19T09:58:48;14.38;;;4.90;;
65202;SDS011;51788;45.124;38.966;2022-08-19T10:01:15;15.55;;;4.45;;
65202;SDS011;51788;45.124;38.966;2022-08-19T10:06:17;11.93;;;4.93;;
65202;SDS011;51788;45.124;38.966;2022-08-19T10:08:45;13.95;;;4.43;;
65202;SDS011;51788;45.124;38.966;2022-08-19T10:11:11;12.43;;;4.47;;
65202;SDS011;51788;45.124;38.966;2022-08-19T10:13:39;8.32;;;3.70;;
65202;SDS011;51788;45.124;38.966;2022-08-19T10:16:07;16.83;;;3.83;;
65202;SDS011;51788;45.124;38.966;2022-08-19T10:18:36;10.70;;;3.92;;
65202;SDS011;51788;45.124;38.966;2022-08-19T10:21:09;13.05;;;3.80;;
65202;SDS011;51788;45.124;38.966;2022-08-19T10:23:38;7.05;;;3.63;;
65202;SDS011;51788;45.124;38.966;2022-08-19T10:26:06;16.65;;;3.35;;
65202;SDS011;51788;45.124;38.966;2022-08-19T10:28:35;8.73;;;3.17;;
65202;SDS011;51788;45.124;38.966;2022-08-19T10:31:06;7.32;;;3.40;;
65202;SDS011;51788;45.124;38.966;2022-08-19T10:33:34;17.73;;;4.00;;
65202;SDS011;51788;45.124;38.966;2022-08-19T10:36:08;13.10;;;4.68;;
65202;SDS011;51788;45.124;38.966;2022-08-19T10:38:36;16.92;;;3.80;;
65202;SDS011;51788;45.124;38.966;2022-08-19T10:41:10;11.15;;;3.47;;
65202;SDS011;51788;45.124;38.966;2022-08-19T10:43:39;9.68;;;3.35;;
65202;SDS011;51788;45.124;38.966;2022-08-19T10:46:07;11.18;;;3.33;;
65202;SDS011;51788;45.124;38.966;2022-08-19T10:48:35;15.45;;;3.78;;
65202;SDS011;51788;45.124;38.966;2022-08-19T10:51:01;12.50;;;3.88;;
65202;SDS011;51788;45.124;38.966;2022-08-19T10:53:46;15.00;;;3.90;;
65202;SDS011;51788;45.124;38.966;2022-08-19T10:56:13;14.43;;;3.90;;
65202;SDS011;51788;45.124;38.966;2022-08-19T10:58:58;10.10;;;3.85;;
65202;SDS011;51788;45.124;38.966;2022-08-19T11:01:25;14.60;;;3.88;;
65202;SDS011;51788;45.124;38.966;2022-08-19T11:03:52;19.63;;;4.28;;
65202;SDS011;51788;45.124;38.966;2022-08-19T11:06:18;11.57;;;3.83;;
65202;SDS011;51788;45.124;38.966;2022-08-19T11:08:45;14.85;;;4.18;;
65202;SDS011;51788;45.124;38.966;2022-08-19T11:11:12;13.00;;;3.92;;
65202;SDS011;51788;45.124;38.966;2022-08-19T11:13:39;12.68;;;3.83;;
65202;SDS011;51788;45.124;38.966;2022-08-19T11:16:08;9.40;;;4.10;;
65202;SDS011;51788;45.124;38.966;2022-08-19T11:18:41;12.65;;;4.57;;
65202;SDS011;51788;45.124;38.966;2022-08-19T11:21:10;9.40;;;3.60;;
65202;SDS011;51788;45.124;38.966;2022-08-19T11:23:39;10.90;;;3.60;;
65202;SDS011;51788;45.124;38.966;2022-08-19T11:26:06;7.50;;;3.63;;
65202;SDS011;51788;45.124;38.966;2022-08-19T11:28:32;23.98;;;4.97;;
65202;SDS011;51788;45.124;38.966;2022-08-19T11:30:58;15.43;;;4.45;;
65202;SDS011;51788;45.124;38.966;2022-08-19T11:33:24;22.20;;;4.40;;
65202;SDS011;51788;45.124;38.966;2022-08-19T11:35:52;7.63;;;3.70;;
65202;SDS011;51788;45.124;38.966;2022-08-19T11:38:19;26.63;;;5.15;;
65202;SDS011;51788;45.124;38.966;2022-08-19T11:40:45;17.35;;;3.78;;
65202;SDS011;51788;45.124;38.966;2022-08-19T11:43:19;11.52;;;3.72;;
65202;SDS011;51788;45.124;38.966;2022-08-19T11:45:46;24.33;;;4.78;;
65202;SDS011;51788;45.124;38.966;2022-08-19T11:48:13;9.38;;;3.38;;
65202;SDS011;51788;45.124;38.966;2022-08-19T11:50:40;10.93;;;3.67;;
65202;SDS011;51788;45.124;38.966;2022-08-19T11:53:07;15.00;;;4.00;;
65202;SDS011;51788;45.124;38.966;2022-08-19T11:55:36;12.95;;;3.53;;
65202;SDS011;51788;45.124;38.966;2022-08-19T11:58:05;13.90;;;3.75;;
65202;SDS011;51788;45.124;38.966;2022-08-19T12:00:33;10.48;;;3.60;;
65202;SDS011;51788;45.124;38.966;2022-08-19T12:03:02;7.78;;;3.30;;
65202;SDS011;51788;45.124;38.966;2022-08-19T12:05:28;8.60;;;3.60;;
65202;SDS011;51788;45.124;38.966;2022-08-19T12:07:54;18.85;;;3.70;;
65202;SDS011;51788;45.124;38.966;2022-08-19T12:10:20;9.13;;;3.35;;
65202;SDS011;51788;45.124;38.966;2022-08-19T12:12:46;20.13;;;3.58;;
65202;SDS011;51788;45.124;38.966;2022-08-19T12:15:12;11.80;;;3.38;;
65202;SDS011;51788;45.124;38.966;2022-08-19T12:17:40;7.13;;;3.30;;
65202;SDS011;51788;45.124;38.966;2022-08-19T12:20:07;24.35;;;5.10;;
65202;SDS011;51788;45.124;38.966;2022-08-19T12:22:36;16.63;;;5.55;;
65202;SDS011;51788;45.124;38.966;2022-08-19T12:25:04;6.78;;;3.60;;
65202;SDS011;51788;45.124;38.966;2022-08-19T12:27:30;10.07;;;4.60;;
65202;SDS011;51788;45.124;38.966;2022-08-19T12:29:57;15.35;;;4.43;;
65202;SDS011;51788;45.124;38.966;2022-08-19T12:32:23;4.32;;;3.35;;
65202;SDS011;51788;45.124;38.966;2022-08-19T12:34:50;7.45;;;3.72;;
65202;SDS011;51788;45.124;38.966;2022-08-19T12:37:16;6.95;;;3.90;;
65202;SDS011;51788;45.124;38.966;2022-08-19T12:39:42;31.80;;;4.50;;
65202;SDS011;51788;45.124;38.966;2022-08-19T12:42:09;6.30;;;3.60;;
65202;SDS011;51788;45.124;38.966;2022-08-19T12:44:37;10.20;;;3.58;;
65202;SDS011;51788;45.124;38.966;2022-08-19T12:47:05;15.65;;;3.40;;
65202;SDS011;51788;45.124;38.966;2022-08-19T12:49:32;10.68;;;3.40;;
65202;SDS011;51788;45.124;38.966;2022-08-19T12:52:03;15.90;;;3.38;;
65202;SDS011;51788;45.124;38.966;2022-08-19T12:54:30;8.00;;;3.83;;
65202;SDS011;51788;45.124;38.966;2022-08-19T12:56:57;13.05;;;2.80;;
65202;SDS011;51788;45.124;38.966;2022-08-19T12:59:23;5.78;;;2.72;;
65202;SDS011;51788;45.124;38.966;2022-08-19T13:01:49;18.20;;;3.63;;
65202;SDS011;51788;45.124;38.966;2022-08-19T13:04:15;20.15;;;3.53;;
65202;SDS011;51788;45.124;38.966;2022-08-19T13:06:41;16.40;;;4.05;;
65202;SDS011;51788;45.124;38.966;2022-08-19T13:09:08;12.05;;;3.20;;
65202;SDS011;51788;45.124;38.966;2022-08-19T13:11:34;15.18;;;3.50;;
65202;SDS011;51788;45.124;38.966;2022-08-19T13:14:02;13.50;;;3.35;;
65202;SDS011;51788;45.124;38.966;2022-08-19T13:16:29;7.30;;;3.25;;
65202;SDS011;51788;45.124;38.966;2022-08-19T13:18:55;13.52;;;3.78;;
65202;SDS011;51788;45.124;38.966;2022-08-19T13:21:23;11.68;;;3.17;;
65202;SDS011;51788;45.124;38.966;2022-08-19T13:23:52;25.58;;;4.03;;
65202;SDS011;51788;45.124;38.966;2022-08-19T13:26:18;9.88;;;3.45;;
65202;SDS011;51788;45.124;38.966;2022-08-19T13:28:45;23.70;;;5.22;;
65202;SDS011;51788;45.124;38.966;2022-08-19T13:31:31;11.80;;;3.30;;
65202;SDS011;51788;45.124;38.966;2022-08-19T13:34:18;6.70;;;3.45;;
65202;SDS011;51788;45.124;38.966;2022-08-19T13:36:51;9.88;;;3.38;;
65202;SDS011;51788;45.124;38.966;2022-08-19T13:39:18;18.85;;;4.40;;
65202;SDS011;51788;45.124;38.966;2022-08-19T13:41:45;9.52;;;3.28;;
65202;SDS011;51788;45.124;38.966;2022-08-19T13:44:13;14.88;;;3.63;;
65202;SDS011;51788;45.124;38.966;2022-08-19T13:46:41;14.20;;;3.65;;
65202;SDS011;51788;45.124;38.966;2022-08-19T13:49:10;17.65;;;3.92;;
65202;SDS011;51788;45.124;38.966;2022-08-19T13:51:37;15.32;;;4.45;;
65202;SDS011;51788;45.124;38.966;2022-08-19T13:54:05;16.73;;;4.13;;
65202;SDS011;51788;45.124;38.966;2022-08-19T13:56:33;23.00;;;4.35;;
65202;SDS011;51788;45.124;38.966;2022-08-19T13:59:00;13.73;;;4.18;;
65202;SDS011;51788;45.124;38.966;2022-08-19T14:01:27;19.95;;;4.30;;
65202;SDS011;51788;45.124;38.966;2022-08-19T14:03:53;12.70;;;3.60;;
65202;SDS011;51788;45.124;38.966;2022-08-19T14:06:19;10.52;;;3.53;;
65202;SDS011;51788;45.124;38.966;2022-08-19T14:08:47;10.57;;;3.70;;
65202;SDS011;51788;45.124;38.966;2022-08-19T14:11:13;16.75;;;3.67;;
65202;SDS011;51788;45.124;38.966;2022-08-19T14:13:39;31.55;;;6.15;;
65202;SDS011;51788;45.124;38.966;2022-08-19T14:16:06;14.43;;;4.53;;
65202;SDS011;51788;45.124;38.966;2022-08-19T14:18:34;22.08;;;4.25;;
65202;SDS011;51788;45.124;38.966;2022-08-19T14:21:00;17.17;;;3.78;;
65202;SDS011;51788;45.124;38.966;2022-08-19T14:23:26;13.32;;;4.30;;
65202;SDS011;51788;45.124;38.966;2022-08-19T14:25:52;12.80;;;3.65;;
65202;SDS011;51788;45.124;38.966;2022-08-19T14:28:21;8.38;;;3.40;;
65202;SDS011;51788;45.124;38.966;2022-08-19T14:30:48;26.58;;;4.20;;
65202;SDS011;51788;45.124;38.966;2022-08-19T14:33:14;23.65;;;4.07;;
65202;SDS011;51788;45.124;38.966;2022-08-19T14:35:40;17.63;;;3.72;;
65202;SDS011;51788;45.124;38.966;2022-08-19T14:38:14;18.95;;;4.78;;
65202;SDS011;51788;45.124;38.966;2022-08-19T14:40:41;23.65;;;5.28;;
65202;SDS011;51788;45.124;38.966;2022-08-19T14:43:07;12.38;;;4.53;;
65202;SDS011;51788;45.124;38.966;2022-08-19T14:45:35;10.60;;;3.75;;
65202;SDS011;51788;45.124;38.966;2022-08-19T14:48:02;24.77;;;4.70;;